Time;durP1;ratioP1;P1;durP2;ratioP2;P2;SDS_P1;SDS_P2;PMS_P1;PMS_P2;Temp;Humidity;BMP_temperature;BMP_pressure;BME280_temperature;BME280_humidity;BME280_pressure;Samples;Min_cycle;Max_cycle;Signal;HPM_P1;HPM_P2
2020/12/23 00:01:28;;;;;;;13.50;5.62;;;;;;;-0.77;72.51;101100.80;1713337;83;21896;-64
2020/12/23 00:03:56;;;;;;;13.32;5.72;;;;;;;-0.79;72.34;101096.88;1713190;82;21467;-63
2020/12/23 00:06:34;;;;;;;12.13;5.70;;;;;;;-0.79;72.23;101096.01;1713394;82;21421;-63
2020/12/23 00:09:05;;;;;;;11.65;4.75;;;;;;;-0.80;72.24;101103.22;1718732;83;21380;-63
2020/12/23 00:11:33;;;;;;;12.70;4.90;;;;;;;-0.78;72.19;101103.11;1718678;82;21414;-66
2020/12/23 00:14:00;;;;;;;11.10;5.40;;;;;;;-0.78;72.09;101105.31;1718214;82;21944;-63
2020/12/23 00:16:28;;;;;;;13.70;5.15;;;;;;;-0.78;72.14;101099.08;1718522;82;21518;-64
2020/12/23 00:18:55;;;;;;;12.75;5.20;;;;;;;-0.77;72.04;101095.41;1718421;82;21887;-63
2020/12/23 00:21:23;;;;;;;13.00;5.58;;;;;;;-0.76;71.97;101100.69;1718388;82;21878;-64
2020/12/23 00:23:50;;;;;;;11.48;4.92;;;;;;;-0.74;71.88;101091.16;1718364;82;21223;-64
2020/12/23 00:26:19;;;;;;;13.20;5.20;;;;;;;-0.73;71.76;101103.64;1718316;83;21185;-64
2020/12/23 00:28:47;;;;;;;12.95;5.65;;;;;;;-0.73;71.69;101102.30;1718504;82;21857;-63
2020/12/23 00:31:16;;;;;;;14.68;4.70;;;;;;;-0.73;71.64;101086.16;1718436;82;21363;-64
2020/12/23 00:33:43;;;;;;;10.60;5.05;;;;;;;-0.70;71.55;101083.25;1718605;82;21460;-67
2020/12/23 00:36:15;;;;;;;8.80;4.37;;;;;;;-0.70;71.47;101080.56;1718157;82;21483;-64
2020/12/23 00:38:43;;;;;;;11.75;5.37;;;;;;;-0.71;71.34;101075.66;1718536;82;21896;-65
2020/12/23 00:41:10;;;;;;;10.10;4.72;;;;;;;-0.70;71.33;101072.48;1718380;82;21347;-65
2020/12/23 00:43:37;;;;;;;11.53;5.12;;;;;;;-0.67;71.30;101066.89;1718286;82;21263;-66
2020/12/23 00:46:11;;;;;;;10.40;4.80;;;;;;;-0.66;71.22;101055.16;1718600;83;21225;-65
2020/12/23 00:48:40;;;;;;;10.40;5.00;;;;;;;-0.65;71.10;101052.38;1718302;82;21149;-64
2020/12/23 00:51:14;;;;;;;11.43;5.20;;;;;;;-0.68;71.07;101049.02;1718441;82;21883;-64
2020/12/23 00:53:42;;;;;;;10.18;4.60;;;;;;;-0.70;71.10;101049.12;1718563;83;21165;-64
2020/12/23 00:56:10;;;;;;;11.03;5.22;;;;;;;-0.73;71.14;101038.59;1690734;83;21531;-63
2020/12/23 00:58:38;;;;;;;14.23;5.50;;;;;;;-0.76;71.20;101041.50;1718557;82;21373;-63
2020/12/23 01:01:05;;;;;;;10.78;5.40;;;;;;;-0.79;71.34;101040.37;1718461;82;21961;-64
2020/12/23 01:03:34;;;;;;;13.18;5.58;;;;;;;-0.82;71.46;101032.52;1716298;83;21279;-65
2020/12/23 01:06:10;;;;;;;12.03;5.83;;;;;;;-0.84;71.66;101033.59;1718500;82;21435;-63
2020/12/23 01:08:37;;;;;;;11.55;4.75;;;;;;;-0.82;71.75;101028.48;1718594;82;21392;-63
2020/12/23 01:11:05;;;;;;;15.83;6.70;;;;;;;-0.82;71.77;101027.14;1718440;83;21928;-64
2020/12/23 01:13:33;;;;;;;14.30;5.62;;;;;;;-0.83;71.85;101020.52;1718628;83;21857;-65
2020/12/23 01:16:01;;;;;;;13.10;5.58;;;;;;;-0.82;71.90;101017.72;1718726;82;21304;-63
2020/12/23 01:18:28;;;;;;;12.68;5.67;;;;;;;-0.81;71.94;101016.75;1718589;82;21114;-65
2020/12/23 01:20:56;;;;;;;11.33;4.97;;;;;;;-0.81;71.97;101003.78;1718701;82;21951;-65
2020/12/23 01:23:23;;;;;;;9.80;5.05;;;;;;;-0.83;71.95;100995.83;1718628;82;21519;-65
2020/12/23 01:25:54;;;;;;;12.20;5.20;;;;;;;-0.83;71.90;100993.63;1718530;83;21823;-64
2020/12/23 01:28:22;;;;;;;11.00;5.10;;;;;;;-0.82;71.92;100994.00;1718583;82;21284;-64
2020/12/23 01:30:50;;;;;;;10.35;4.47;;;;;;;-0.80;71.86;100990.22;1718601;82;21149;-64
2020/12/23 01:33:17;;;;;;;13.15;5.80;;;;;;;-0.78;71.82;100986.94;1718673;83;21173;-63
2020/12/23 01:35:46;;;;;;;11.85;5.28;;;;;;;-0.77;71.78;100984.62;1718653;82;21212;-64
2020/12/23 01:38:13;;;;;;;13.48;6.05;;;;;;;-0.75;71.76;100988.55;1718559;83;22020;-63
2020/12/23 01:40:40;;;;;;;13.00;5.90;;;;;;;-0.75;71.74;100983.17;1718678;83;21445;-64
2020/12/23 01:43:09;;;;;;;14.43;6.45;;;;;;;-0.72;71.72;100982.94;1718620;83;22211;-63
2020/12/23 01:45:36;;;;;;;15.18;6.12;;;;;;;-0.70;71.64;100978.31;1718644;82;21411;-63
2020/12/23 01:48:16;;;;;;;13.03;5.90;;;;;;;-0.70;71.62;100967.55;1718599;83;21209;-64
2020/12/23 01:50:44;;;;;;;16.37;6.25;;;;;;;-0.69;71.66;100972.82;1718565;83;21990;-65
2020/12/23 01:53:12;;;;;;;16.75;6.15;;;;;;;-0.68;71.59;100959.73;1718697;83;21912;-64
2020/12/23 01:55:39;;;;;;;14.53;6.78;;;;;;;-0.67;71.65;100962.80;1719082;82;21750;-63
2020/12/23 01:58:08;;;;;;;15.83;6.17;;;;;;;-0.63;71.66;100959.44;1718113;82;21213;-62
2020/12/23 02:00:36;;;;;;;17.67;7.30;;;;;;;-0.61;71.57;100942.69;1718388;83;21946;-64
2020/12/23 02:03:04;;;;;;;18.65;7.42;;;;;;;-0.61;71.61;100939.14;1718426;82;21372;-64
2020/12/23 02:05:32;;;;;;;16.17;7.12;;;;;;;-0.60;71.60;100932.30;1718225;82;21928;-63
2020/12/23 02:07:59;;;;;;;15.85;6.83;;;;;;;-0.58;71.62;100927.66;1718214;82;21503;-63
2020/12/23 02:10:27;;;;;;;17.45;7.28;;;;;;;-0.56;71.61;100927.55;1718472;83;21177;-63
2020/12/23 02:12:54;;;;;;;15.83;6.62;;;;;;;-0.56;71.61;100926.20;1718521;82;21181;-64
2020/12/23 02:15:21;;;;;;;14.78;5.92;;;;;;;-0.55;71.56;100915.33;1718558;83;21428;-64
2020/12/23 02:17:49;;;;;;;15.63;6.85;;;;;;;-0.56;71.48;100914.95;1718385;83;21848;-64
2020/12/23 02:20:16;;;;;;;15.13;6.85;;;;;;;-0.57;71.54;100913.23;1717923;82;21871;-63
2020/12/23 02:22:46;;;;;;;16.02;7.00;;;;;;;-0.56;71.55;100910.05;1718630;82;21397;-64
2020/12/23 02:25:14;;;;;;;17.00;6.97;;;;;;;-0.56;71.49;100910.91;1718422;82;21884;-63
2020/12/23 02:27:43;;;;;;;16.02;7.50;;;;;;;-0.56;71.53;100909.56;1718548;83;21192;-63
2020/12/23 02:30:11;;;;;;;17.37;6.65;;;;;;;-0.53;71.50;100907.99;1718582;82;21185;-64
2020/12/23 02:32:39;;;;;;;18.77;8.30;;;;;;;-0.50;71.49;100909.59;1718656;82;21153;-64
2020/12/23 02:35:08;;;;;;;18.57;7.50;;;;;;;-0.47;71.43;100906.19;1718407;82;21345;-62
2020/12/23 02:37:36;;;;;;;18.50;7.08;;;;;;;-0.44;71.26;100901.06;1718957;82;21859;-63
2020/12/23 02:40:04;;;;;;;16.45;7.15;;;;;;;-0.46;71.25;100893.59;1718384;83;21150;-64
2020/12/23 02:42:32;;;;;;;18.30;7.12;;;;;;;-0.46;71.26;100889.06;1718570;83;21376;-62
2020/12/23 02:44:59;;;;;;;16.40;6.53;;;;;;;-0.44;71.22;100884.91;1718482;82;21898;-64
2020/12/23 02:47:27;;;;;;;16.93;6.37;;;;;;;-0.45;71.16;100877.81;1718681;83;21340;-64
2020/12/23 02:49:54;;;;;;;19.00;7.72;;;;;;;-0.47;71.12;100878.41;1718380;83;21881;-63
2020/12/23 02:52:22;;;;;;;19.40;7.47;;;;;;;-0.50;71.18;100869.22;1718299;83;21486;-64
2020/12/23 02:54:51;;;;;;;19.65;7.90;;;;;;;-0.51;71.21;100871.05;1718446;83;21118;-64
2020/12/23 02:57:18;;;;;;;23.90;9.33;;;;;;;-0.51;71.27;100879.12;1718575;82;21280;-63
2020/12/23 02:59:46;;;;;;;21.68;7.87;;;;;;;-0.51;71.26;100875.58;1718598;83;21157;-64
2020/12/23 03:02:13;;;;;;;20.90;8.48;;;;;;;-0.52;71.35;100873.38;1718425;82;21522;-64
2020/12/23 03:04:42;;;;;;;22.87;9.23;;;;;;;-0.49;71.37;100874.48;1714828;83;21208;-64
2020/12/23 03:07:09;;;;;;;20.35;8.63;;;;;;;-0.47;71.42;100870.34;1718303;82;21417;-64
2020/12/23 03:09:37;;;;;;;20.45;9.10;;;;;;;-0.45;71.37;100865.20;1718173;82;21547;-64
2020/12/23 03:12:05;;;;;;;21.90;9.18;;;;;;;-0.44;71.33;100865.58;1718457;82;21968;-64
2020/12/23 03:14:32;;;;;;;20.92;8.33;;;;;;;-0.44;71.30;100864.23;1718534;83;21500;-64
2020/12/23 03:16:59;;;;;;;20.60;8.55;;;;;;;-0.42;71.33;100867.67;1718646;82;21388;-64
2020/12/23 03:19:27;;;;;;;21.33;8.20;;;;;;;-0.40;71.29;100856.78;1718248;83;21733;-66
2020/12/23 03:21:54;;;;;;;25.25;9.63;;;;;;;-0.40;71.21;100860.34;1718521;83;21160;-63
2020/12/23 03:24:22;;;;;;;23.02;9.43;;;;;;;-0.41;71.18;100861.31;1718418;82;21375;-63
2020/12/23 03:26:49;;;;;;;19.87;7.83;;;;;;;-0.43;71.21;100849.80;1718385;83;21426;-63
2020/12/23 03:29:16;;;;;;;22.60;9.20;;;;;;;-0.42;71.28;100856.91;1718188;82;21598;-63
2020/12/23 03:31:44;;;;;;;19.40;8.43;;;;;;;-0.42;71.21;100852.00;1718189;82;21323;-64
2020/12/23 03:34:11;;;;;;;17.48;7.75;;;;;;;-0.45;71.23;100850.41;1718201;82;21455;-63
2020/12/23 03:36:38;;;;;;;21.30;9.40;;;;;;;-0.45;71.29;100844.16;1718181;83;21528;-64
2020/12/23 03:39:07;;;;;;;20.97;8.25;;;;;;;-0.46;71.32;100847.83;1718289;82;21774;-64
2020/12/23 03:41:35;;;;;;;21.97;9.18;;;;;;;-0.47;71.35;100845.62;1718298;82;21460;-63
2020/12/23 03:44:02;;;;;;;23.38;10.23;;;;;;;-0.45;71.41;100849.06;1718513;82;21851;-64
2020/12/23 03:46:30;;;;;;;19.60;9.10;;;;;;;-0.42;71.43;100846.63;1718471;83;21129;-63
2020/12/23 03:48:57;;;;;;;22.27;9.00;;;;;;;-0.40;71.44;100852.26;1718509;82;21455;-63
2020/12/23 03:51:24;;;;;;;20.80;10.20;;;;;;;-0.37;71.41;100845.30;1717961;82;21871;-64
2020/12/23 03:53:52;;;;;;;21.52;8.83;;;;;;;-0.37;71.36;100845.30;1718474;82;21565;-64
2020/12/23 03:56:19;;;;;;;23.07;9.03;;;;;;;-0.36;71.38;100851.54;1718574;82;21824;-64
2020/12/23 03:58:46;;;;;;;23.70;8.63;;;;;;;-0.36;71.34;100842.98;1718366;83;21315;-63
2020/12/23 04:01:14;;;;;;;19.40;8.58;;;;;;;-0.36;71.38;100838.08;1718152;83;21165;-63
2020/12/23 04:03:41;;;;;;;19.77;8.20;;;;;;;-0.36;71.40;100835.39;1718387;82;21454;-63
2020/12/23 04:06:09;;;;;;;21.50;8.40;;;;;;;-0.36;71.40;100830.00;1718508;82;21332;-65
2020/12/23 04:08:37;;;;;;;22.70;9.13;;;;;;;-0.36;71.37;100830.00;1717086;83;21920;-65
2020/12/23 04:11:05;;;;;;;22.70;9.20;;;;;;;-0.38;71.40;100830.61;1712939;83;21936;-63
2020/12/23 04:13:32;;;;;;;19.42;8.65;;;;;;;-0.39;71.41;100822.16;1713186;82;22012;-63
2020/12/23 04:16:00;;;;;;;21.65;8.90;;;;;;;-0.40;71.48;100823.14;1713359;82;21580;-64
2020/12/23 04:18:28;;;;;;;24.82;8.98;;;;;;;-0.39;71.54;100819.47;1713402;82;21189;-63
2020/12/23 04:20:55;;;;;;;20.57;8.95;;;;;;;-0.39;71.59;100825.71;1713244;83;21869;-65
2020/12/23 04:23:22;;;;;;;20.20;8.45;;;;;;;-0.39;71.58;100814.95;1713181;82;21460;-63
2020/12/23 04:25:50;;;;;;;20.70;7.90;;;;;;;-0.40;71.65;100809.19;1712935;83;21586;-64
2020/12/23 04:28:17;;;;;;;23.83;9.40;;;;;;;-0.40;71.71;100808.33;1713178;82;22180;-63
2020/12/23 04:30:47;;;;;;;25.52;9.58;;;;;;;-0.43;71.75;100809.91;1713233;83;21827;-63
2020/12/23 04:33:17;;;;;;;23.98;10.10;;;;;;;-0.45;71.84;100808.69;1713044;82;21478;-64
2020/12/23 04:35:46;;;;;;;20.95;8.13;;;;;;;-0.41;71.96;100806.62;1710207;82;21174;-64
2020/12/23 04:38:13;;;;;;;26.05;9.43;;;;;;;-0.40;71.95;100815.92;1713175;82;21157;-63
2020/12/23 04:40:41;;;;;;;25.72;9.13;;;;;;;-0.42;71.92;100807.59;1712878;82;21451;-63
2020/12/23 04:43:08;;;;;;;24.00;10.00;;;;;;;-0.44;71.96;100807.70;1684943;82;21412;-65
2020/12/23 04:45:36;;;;;;;19.62;9.18;;;;;;;-0.43;72.07;100813.95;1713115;83;21489;-64
2020/12/23 04:48:03;;;;;;;24.65;10.25;;;;;;;-0.40;72.10;100821.30;1713055;83;21213;-64
2020/12/23 04:50:32;;;;;;;22.62;9.03;;;;;;;-0.39;72.08;100816.29;1685034;83;21556;-65
2020/12/23 04:53:00;;;;;;;20.92;9.08;;;;;;;-0.38;72.00;100820.70;1712976;82;21801;-62
2020/12/23 04:55:27;;;;;;;20.92;8.53;;;;;;;-0.38;72.02;100818.49;1713110;83;21411;-63
2020/12/23 04:57:56;;;;;;;23.45;9.48;;;;;;;-0.36;72.00;100809.33;1713179;82;21282;-62
2020/12/23 05:00:25;;;;;;;21.40;7.90;;;;;;;-0.34;72.03;100818.14;1713223;82;21193;-63
2020/12/23 05:02:52;;;;;;;19.35;9.15;;;;;;;-0.32;72.01;100812.16;1713231;82;21462;-63
2020/12/23 05:05:20;;;;;;;19.60;7.87;;;;;;;-0.31;71.91;100806.28;1713294;83;21380;-63
2020/12/23 05:07:48;;;;;;;19.98;7.50;;;;;;;-0.30;71.83;100805.30;1713123;82;21206;-64
2020/12/23 05:10:15;;;;;;;16.97;7.50;;;;;;;-0.30;71.81;100808.48;1713102;82;21141;-63
2020/12/23 05:12:44;;;;;;;19.67;7.87;;;;;;;-0.30;71.75;100805.79;1713269;82;21210;-62
2020/12/23 05:15:12;;;;;;;22.02;8.33;;;;;;;-0.33;71.75;100809.58;1713181;83;21903;-63
2020/12/23 05:17:45;;;;;;;18.42;7.90;;;;;;;-0.35;71.79;100802.97;1713143;83;21378;-63
2020/12/23 05:20:12;;;;;;;20.70;8.48;;;;;;;-0.34;71.75;100801.98;1712847;83;21857;-64
2020/12/23 05:22:42;;;;;;;22.27;7.62;;;;;;;-0.38;71.74;100795.61;1713186;83;21201;-63
2020/12/23 05:25:10;;;;;;;17.00;7.87;;;;;;;-0.38;71.77;100802.34;1685410;82;21828;-62
2020/12/23 05:27:38;;;;;;;22.65;8.63;;;;;;;-0.38;71.80;100800.51;1713063;83;21380;-63
2020/12/23 05:30:05;;;;;;;21.68;8.90;;;;;;;-0.36;71.83;100801.73;1662288;82;21177;-63
2020/12/23 05:32:40;;;;;;;21.25;8.75;;;;;;;-0.34;71.81;100805.17;1713151;82;21165;-63
2020/12/23 05:35:08;;;;;;;20.45;8.58;;;;;;;-0.34;71.84;100796.60;1663889;83;21408;-64
2020/12/23 05:37:35;;;;;;;19.57;8.78;;;;;;;-0.33;71.80;100799.66;1713200;83;21476;-63
2020/12/23 05:40:03;;;;;;;19.57;7.95;;;;;;;-0.32;71.77;100790.61;1712893;82;21960;-65
2020/12/23 05:42:30;;;;;;;24.37;9.08;;;;;;;-0.30;71.76;100786.94;1713039;83;21157;-65
2020/12/23 05:44:59;;;;;;;24.07;11.00;;;;;;;-0.30;71.70;100790.49;1713069;83;21182;-65
2020/12/23 05:47:27;;;;;;;22.70;9.13;;;;;;;-0.32;71.70;100787.92;1712983;82;21529;-64
2020/12/23 05:49:55;;;;;;;20.15;8.10;;;;;;;-0.34;71.74;100785.83;1713000;82;21356;-64
2020/12/23 05:52:23;;;;;;;22.70;9.63;;;;;;;-0.32;71.82;100789.27;1713016;83;21165;-64
2020/12/23 05:54:54;;;;;;;22.82;9.83;;;;;;;-0.30;71.85;100789.15;1712964;83;21332;-64
2020/12/23 05:57:21;;;;;;;20.57;8.13;;;;;;;-0.28;71.91;100786.34;1713006;82;21157;-64
2020/12/23 05:59:49;;;;;;;25.02;10.65;;;;;;;-0.27;71.91;100779.48;1712922;82;21395;-63
2020/12/23 06:02:16;;;;;;;27.20;9.40;;;;;;;-0.27;71.90;100775.45;1712854;82;21913;-63
2020/12/23 06:04:44;;;;;;;26.23;10.05;;;;;;;-0.24;71.98;100773.00;1662149;83;21448;-63
2020/12/23 06:07:11;;;;;;;28.60;10.90;;;;;;;-0.23;71.98;100766.64;1712931;82;21177;-64
2020/12/23 06:09:49;;;;;;;26.10;8.30;;;;;;;-0.27;72.00;100759.29;1712975;82;21189;-64
2020/12/23 06:12:22;;;;;;;27.80;11.18;;;;;;;-0.29;72.14;100769.81;1687194;83;21346;-63
2020/12/23 06:14:58;;;;;;;23.95;9.13;;;;;;;-0.33;72.22;100771.40;1710647;82;21377;-66
2020/12/23 06:17:26;;;;;;;27.98;12.03;;;;;;;-0.34;72.38;100772.37;1709289;82;21401;-66
2020/12/23 06:19:57;;;;;;;32.83;12.73;;;;;;;-0.34;72.49;100766.99;1711313;82;21818;-67
2020/12/23 06:22:27;;;;;;;39.78;16.35;;;;;;;-0.33;72.59;100762.47;1710643;83;21292;-66
2020/12/23 06:25:00;;;;;;;38.28;15.08;;;;;;;-0.31;72.69;100763.20;1710606;82;21837;-67
2020/12/23 06:27:26;;;;;;;38.42;15.32;;;;;;;-0.26;72.77;100762.84;1710712;82;21352;-65
2020/12/23 06:29:53;;;;;;;44.85;17.30;;;;;;;-0.24;72.79;100771.17;1660085;83;21345;-65
2020/12/23 06:32:23;;;;;;;30.57;12.55;;;;;;;-0.20;72.82;100765.05;1710740;82;21983;-65
2020/12/23 06:34:57;;;;;;;67.90;22.22;;;;;;;-0.18;72.76;100764.45;1710278;82;21241;-65
2020/12/23 06:37:33;;;;;;;52.17;19.10;;;;;;;-0.18;72.79;100749.15;1711063;82;21460;-66
2020/12/23 06:40:11;;;;;;;43.35;17.10;;;;;;;-0.17;72.79;100739.23;1682608;83;21812;-65
2020/12/23 06:42:46;;;;;;;36.13;14.63;;;;;;;-0.16;72.82;100728.34;1710995;83;21244;-66
2020/12/23 06:45:14;;;;;;;36.03;14.70;;;;;;;-0.16;72.84;100731.03;1710944;82;21288;-66
2020/12/23 06:47:42;;;;;;;51.45;17.57;;;;;;;-0.17;72.83;100741.92;1710742;82;21142;-64
2020/12/23 06:50:24;;;;;;;60.50;21.42;;;;;;;-0.18;72.92;100732.13;1683209;82;21912;-65
2020/12/23 06:52:51;;;;;;;94.17;32.05;;;;;;;-0.16;73.02;100728.83;1682352;83;22222;-64
2020/12/23 06:55:18;;;;;;;121.13;35.43;;;;;;;-0.14;73.01;100734.95;1712782;83;21291;-62
2020/12/23 06:57:49;;;;;;;104.85;36.53;;;;;;;-0.16;72.99;100732.87;1713052;83;21395;-64
2020/12/23 07:00:31;;;;;;;80.67;32.93;;;;;;;-0.16;73.11;100737.77;1713114;82;21399;-64
2020/12/23 07:03:05;;;;;;;110.57;36.23;;;;;;;-0.15;73.18;100750.73;1713146;82;21722;-63
2020/12/23 07:05:39;;;;;;;105.32;40.03;;;;;;;-0.13;73.19;100743.40;1712944;83;21951;-64
2020/12/23 07:08:08;;;;;;;58.52;21.55;;;;;;;-0.14;73.18;100750.62;1712815;82;21466;-63
2020/12/23 07:10:42;;;;;;;41.68;16.97;;;;;;;-0.14;73.23;100756.50;1712909;82;21424;-63
2020/12/23 07:13:15;;;;;;;41.88;16.00;;;;;;;-0.17;73.26;100750.86;1708360;82;21384;-63
2020/12/23 07:15:57;;;;;;;38.75;13.50;;;;;;;-0.18;73.33;100755.87;1687295;83;21153;-63
2020/12/23 07:18:28;;;;;;;49.60;19.05;;;;;;;-0.18;73.42;100761.75;1714504;82;21794;-64
2020/12/23 07:21:02;;;;;;;30.65;12.37;;;;;;;-0.18;73.45;100758.58;1690750;83;21316;-63
2020/12/23 07:23:31;;;;;;;37.17;15.72;;;;;;;-0.18;73.55;100761.27;1686067;83;21793;-64
2020/12/23 07:26:03;;;;;;;36.85;13.60;;;;;;;-0.18;73.57;100766.66;1686359;85;21368;-65
2020/12/23 07:28:39;;;;;;;36.33;13.08;;;;;;;-0.20;73.68;100747.55;1686005;83;21985;-63
2020/12/23 08:55:34;;;;;;;28.07;11.12;;;;;;;0.41;76.07;100680.20;1765223;77;22950;-63
2020/12/23 08:58:07;;;;;;;31.82;13.43;;;;;;;0.34;76.11;100685.73;1689375;83;21260;-66
2020/12/23 09:00:34;;;;;;;35.03;14.00;;;;;;;0.32;76.27;100679.61;1730193;81;21450;-65
2020/12/23 09:03:02;;;;;;;30.88;11.95;;;;;;;0.34;76.52;100676.80;1739950;81;21637;-66
2020/12/23 09:05:30;;;;;;;34.95;13.53;;;;;;;0.34;76.57;100674.09;1748924;81;21305;-66
2020/12/23 09:08:07;;;;;;;34.10;12.53;;;;;;;0.35;76.76;100665.03;1745161;81;21926;-68
2020/12/23 09:10:39;;;;;;;31.17;12.75;;;;;;;0.38;76.87;100663.43;1740350;81;21331;-65
2020/12/23 09:13:13;;;;;;;35.43;13.65;;;;;;;0.41;76.98;100662.69;1726675;81;21507;-65
2020/12/23 09:15:40;;;;;;;40.40;13.55;;;;;;;0.42;77.04;100655.45;1734831;81;21380;-66
2020/12/23 09:18:11;;;;;;;55.52;19.32;;;;;;;0.45;77.05;100655.20;1721063;81;21133;-65
2020/12/23 09:20:39;;;;;;;38.13;15.15;;;;;;;0.47;77.12;100648.70;1732073;81;21196;-63
2020/12/23 09:23:08;;;;;;;35.03;15.05;;;;;;;0.49;77.17;100652.62;1752640;81;21924;-65
2020/12/23 09:25:38;;;;;;;37.35;16.95;;;;;;;0.53;77.14;100654.08;1768311;81;21181;-65
2020/12/23 09:28:11;;;;;;;33.65;14.33;;;;;;;0.53;77.18;100656.28;1741647;81;21561;-65
2020/12/23 09:30:44;;;;;;;33.98;14.28;;;;;;;0.54;77.23;100644.52;1737017;81;21152;-63
2020/12/23 09:33:19;;;;;;;37.50;13.93;;;;;;;0.58;77.19;100643.77;1730995;81;21926;-63
2020/12/23 09:35:49;;;;;;;26.20;11.22;;;;;;;0.58;77.19;100637.02;1732931;81;21897;-63
2020/12/23 09:38:24;;;;;;;29.10;12.15;;;;;;;0.57;77.25;100627.23;1725737;81;21413;-62
2020/12/23 09:40:55;;;;;;;36.10;14.50;;;;;;;0.53;77.29;100628.47;1729319;81;21372;-63
2020/12/23 09:43:30;;;;;;;33.38;13.93;;;;;;;0.49;77.38;100623.83;1729945;81;21466;-63
2020/12/23 09:46:02;;;;;;;33.78;12.75;;;;;;;0.47;77.45;100615.00;1726795;81;21518;-62
2020/12/23 09:48:29;;;;;;;36.42;13.98;;;;;;;0.48;77.57;100615.86;1734066;81;21700;-64
2020/12/23 09:50:59;;;;;;;31.68;13.22;;;;;;;0.49;77.62;100618.92;1737705;81;21185;-65
2020/12/23 09:53:27;;;;;;;32.88;13.93;;;;;;;0.49;77.68;100609.48;1745711;81;21591;-62
2020/12/23 09:55:56;;;;;;;31.77;12.28;;;;;;;0.48;77.73;100613.17;1740444;81;21508;-62
2020/12/23 09:58:25;;;;;;;32.38;13.38;;;;;;;0.47;77.85;100606.92;1687421;84;21204;-66
2020/12/23 10:00:52;;;;;;;39.25;13.48;;;;;;;0.47;77.86;100611.45;1686096;84;21461;-67
2020/12/23 10:03:20;;;;;;;60.75;23.10;;;;;;;0.45;77.96;100596.76;1677826;84;21458;-67
2020/12/23 10:05:48;;;;;;;45.48;19.55;;;;;;;0.47;78.06;100593.94;1690317;84;21380;-65
2020/12/23 10:08:15;;;;;;;49.35;20.80;;;;;;;0.49;78.13;100590.63;1672491;84;21197;-67
2020/12/23 10:10:43;;;;;;;45.88;21.23;;;;;;;0.50;78.19;100589.64;1692865;84;21405;-65
2020/12/23 10:13:10;;;;;;;38.38;16.07;;;;;;;0.51;78.25;100579.22;1676890;84;21458;-66
2020/12/23 10:15:38;;;;;;;32.42;13.53;;;;;;;0.51;78.25;100579.22;1682952;84;21904;-64
2020/12/23 10:18:06;;;;;;;36.38;16.35;;;;;;;0.50;78.20;100577.50;1696580;84;21534;-65
2020/12/23 10:20:33;;;;;;;39.55;17.27;;;;;;;0.49;78.24;100574.45;1669315;84;21413;-65
2020/12/23 10:23:01;;;;;;;56.70;21.27;;;;;;;0.54;78.40;100574.91;1669000;84;21860;-66
2020/12/23 10:25:30;;;;;;;52.35;18.52;;;;;;;0.55;78.41;100564.00;1677686;84;21170;-65
2020/12/23 10:27:57;;;;;;;40.75;16.00;;;;;;;0.58;78.38;100568.28;1690174;84;21703;-67
2020/12/23 10:30:25;;;;;;;34.35;15.08;;;;;;;0.59;78.31;100557.86;1668551;85;21430;-65
2020/12/23 10:32:54;;;;;;;29.90;14.00;;;;;;;0.56;78.28;100558.11;1673878;84;21467;-65
2020/12/23 10:35:21;;;;;;;32.40;13.25;;;;;;;0.58;78.34;100556.14;1679828;84;21949;-66
2020/12/23 10:37:49;;;;;;;33.28;12.23;;;;;;;0.55;78.32;100550.52;1674256;84;21447;-65
2020/12/23 10:40:16;;;;;;;26.30;11.03;;;;;;;0.55;78.40;100556.41;1692964;84;21205;-67
2020/12/23 10:42:43;;;;;;;30.55;11.68;;;;;;;0.53;78.41;100555.68;1671735;84;21183;-67
2020/12/23 10:45:11;;;;;;;28.30;11.90;;;;;;;0.54;78.46;100554.70;1673569;84;21410;-63
2020/12/23 10:47:38;;;;;;;25.55;11.45;;;;;;;0.57;78.51;100558.48;1675373;84;22096;-65
2020/12/23 10:50:05;;;;;;;26.70;10.65;;;;;;;0.56;78.49;100544.14;1672065;84;21919;-65
2020/12/23 10:52:33;;;;;;;25.50;10.48;;;;;;;0.59;78.56;100545.72;1682090;84;21196;-65
2020/12/23 10:55:00;;;;;;;26.87;11.08;;;;;;;0.60;78.52;100537.50;1665222;84;21487;-63
2020/12/23 10:57:33;;;;;;;26.75;11.05;;;;;;;0.62;78.56;100534.68;1683166;84;21177;-64
2020/12/23 10:59:58;;;;;;;22.95;10.80;;;;;;;0.66;78.63;100533.95;1684258;84;22011;-64
2020/12/23 11:02:25;;;;;;;25.75;10.32;;;;;;;0.68;78.53;100531.98;1673671;84;21439;-64
2020/12/23 11:04:53;;;;;;;22.73;9.45;;;;;;;0.65;78.46;100529.05;1654458;86;21177;-64
2020/12/23 11:07:20;;;;;;;28.85;10.85;;;;;;;0.67;78.48;100531.13;1683785;84;21145;-65
2020/12/23 11:09:48;;;;;;;23.02;9.55;;;;;;;0.68;78.45;100522.05;1686181;84;21906;-65
2020/12/23 11:12:15;;;;;;;23.95;10.85;;;;;;;0.70;78.48;100516.03;1683349;84;21196;-63
2020/12/23 11:14:44;;;;;;;26.33;10.05;;;;;;;0.69;78.41;100512.13;1675777;84;21296;-62
2020/12/23 11:17:12;;;;;;;19.75;8.80;;;;;;;0.71;78.50;100518.23;1682332;84;21892;-65
2020/12/23 11:19:40;;;;;;;24.65;10.13;;;;;;;0.75;78.56;100515.14;1673405;84;21291;-63
2020/12/23 11:22:07;;;;;;;19.73;9.48;;;;;;;0.78;78.46;100516.23;1668676;85;21755;-65
2020/12/23 11:24:36;;;;;;;23.70;9.18;;;;;;;0.77;78.32;100522.61;1689229;83;21173;-68
2020/12/23 11:27:03;;;;;;;30.95;12.63;;;;;;;0.78;78.31;100521.63;1689559;84;22313;-65
2020/12/23 11:29:30;;;;;;;52.43;19.12;;;;;;;0.77;78.13;100520.41;1659095;85;21141;-66
2020/12/23 11:31:58;;;;;;;107.12;33.35;;;;;;;0.75;78.00;100520.54;1669216;84;21894;-67
2020/12/23 11:34:25;;;;;;;98.05;30.52;;;;;;;0.72;78.02;100519.95;1667737;85;21558;-65
2020/12/23 11:36:56;;;;;;;32.65;12.70;;;;;;;0.74;78.08;100509.39;1678713;84;21958;-63
2020/12/23 11:39:24;;;;;;;34.50;13.88;;;;;;;0.74;77.94;100508.53;1694793;83;21947;-66
2020/12/23 11:41:56;;;;;;;24.70;11.73;;;;;;;0.75;77.98;100504.85;1671947;85;21897;-67
2020/12/23 11:44:24;;;;;;;20.20;8.50;;;;;;;0.78;78.06;100497.84;1692796;83;21865;-66
2020/12/23 11:46:51;;;;;;;22.95;9.63;;;;;;;0.81;78.03;100496.23;1693196;83;21388;-65
2020/12/23 11:49:18;;;;;;;20.70;9.23;;;;;;;0.79;77.95;100495.02;1700686;83;21197;-62
2020/12/23 11:51:48;;;;;;;22.40;10.35;;;;;;;0.78;77.93;100502.75;1703422;83;21619;-66
2020/12/23 11:54:17;;;;;;;20.40;9.20;;;;;;;0.78;77.90;100496.00;1692778;83;21957;-65
2020/12/23 11:56:45;;;;;;;31.80;12.98;;;;;;;0.79;77.86;100492.31;1702569;83;21173;-67
2020/12/23 11:59:13;;;;;;;23.32;11.03;;;;;;;0.79;77.90;100486.92;1682715;84;21146;-65
2020/12/23 12:01:41;;;;;;;37.13;16.10;;;;;;;0.82;77.97;100496.59;1678105;84;21213;-64
2020/12/23 12:04:11;;;;;;;24.23;11.60;;;;;;;0.84;77.86;100495.47;1665802;84;21173;-64
2020/12/23 12:06:40;;;;;;;28.65;11.43;;;;;;;0.87;77.82;100493.00;1671888;84;21177;-65
2020/12/23 12:09:07;;;;;;;26.48;12.45;;;;;;;0.87;77.75;100495.20;1669137;84;22014;-64
2020/12/23 12:11:35;;;;;;;44.80;18.40;;;;;;;0.89;77.71;100496.42;1680997;84;21492;-64
2020/12/23 12:14:03;;;;;;;25.45;11.63;;;;;;;0.91;77.61;100502.04;1679950;84;21209;-65
2020/12/23 12:16:31;;;;;;;26.15;11.83;;;;;;;0.91;77.62;100500.69;1675140;84;21451;-63
2020/12/23 12:18:58;;;;;;;22.20;9.45;;;;;;;0.87;77.48;100505.99;1670249;84;21199;-68
2020/12/23 12:21:28;;;;;;;18.17;8.85;;;;;;;0.87;77.51;100504.64;1681209;84;21199;-69
2020/12/23 12:23:56;;;;;;;19.10;9.40;;;;;;;0.88;77.47;100502.80;1678179;84;21247;-68
2020/12/23 12:26:33;;;;;;;21.12;9.88;;;;;;;0.85;77.51;100491.78;1674011;84;21395;-67
2020/12/23 12:29:01;;;;;;;19.42;9.13;;;;;;;0.87;77.59;100497.05;1686523;84;21508;-68
2020/12/23 12:31:28;;;;;;;17.87;8.28;;;;;;;0.90;77.73;100497.63;1686050;84;21185;-71
2020/12/23 12:33:56;;;;;;;19.37;8.45;;;;;;;0.91;77.63;100503.39;1681909;84;21208;-65
2020/12/23 12:36:24;;;;;;;17.25;8.43;;;;;;;0.89;77.57;100497.77;1679417;85;21177;-70
2020/12/23 12:38:52;;;;;;;20.12;9.30;;;;;;;0.85;77.60;100497.67;1675934;84;22295;-73
2020/12/23 12:41:26;;;;;;;19.10;8.95;;;;;;;0.85;77.78;100499.88;1693317;84;21209;-70
2020/12/23 12:43:54;;;;;;;21.33;9.70;;;;;;;0.85;77.83;100493.14;1683960;84;21168;-69
2020/12/23 12:46:22;;;;;;;23.40;9.80;;;;;;;0.85;77.82;100497.67;1674180;84;21451;-69
2020/12/23 12:48:50;;;;;;;25.60;12.28;;;;;;;0.86;77.85;100492.64;1683737;84;21793;-68